sensor_id;sensor_type;location;lat;lon;timestamp;P1;P2;P0
43479;PMS5003;29067;35.492;-97.520;2022-10-29T00:01:04;18;18;
43479;PMS5003;29067;35.492;-97.520;2022-10-29T00:03:32;22;21;
43479;PMS5003;29067;35.492;-97.520;2022-10-29T00:06:06;22;22;
43479;PMS5003;29067;35.492;-97.520;2022-10-29T00:08:37;23;21;
43479;PMS5003;29067;35.492;-97.520;2022-10-29T00:11:06;24;23;
43479;PMS5003;29067;35.492;-97.520;2022-10-29T00:13:35;21;21;
43479;PMS5003;29067;35.492;-97.520;2022-10-29T00:16:04;21;20;
43479;PMS5003;29067;35.492;-97.520;2022-10-29T00:18:34;19;17;
43479;PMS5003;29067;35.492;-97.520;2022-10-29T00:21:02;18;18;
43479;PMS5003;29067;35.492;-97.520;2022-10-29T00:23:33;20;19;
43479;PMS5003;29067;35.492;-97.520;2022-10-29T00:26:02;18;16;
43479;PMS5003;29067;35.492;-97.520;2022-10-29T00:28:31;19;18;
43479;PMS5003;29067;35.492;-97.520;2022-10-29T00:31:01;20;19;
43479;PMS5003;29067;35.492;-97.520;2022-10-29T00:33:30;20;19;
43479;PMS5003;29067;35.492;-97.520;2022-10-29T00:35:59;22;20;
43479;PMS5003;29067;35.492;-97.520;2022-10-29T00:38:29;22;19;
43479;PMS5003;29067;35.492;-97.520;2022-10-29T00:41:03;20;19;
43479;PMS5003;29067;35.492;-97.520;2022-10-29T00:43:34;26;22;
43479;PMS5003;29067;35.492;-97.520;2022-10-29T00:46:05;26;22;
43479;PMS5003;29067;35.492;-97.520;2022-10-29T00:48:38;25;24;
43479;PMS5003;29067;35.492;-97.520;2022-10-29T00:51:10;25;22;
43479;PMS5003;29067;35.492;-97.520;2022-10-29T00:53:41;23;23;
43479;PMS5003;29067;35.492;-97.520;2022-10-29T00:56:13;22;22;
43479;PMS5003;29067;35.492;-97.520;2022-10-29T00:58:42;23;23;
43479;PMS5003;29067;35.492;-97.520;2022-10-29T01:01:10;30;29;
43479;PMS5003;29067;35.492;-97.520;2022-10-29T01:03:38;33;27;
43479;PMS5003;29067;35.492;-97.520;2022-10-29T01:06:07;29;28;
43479;PMS5003;29067;35.492;-97.520;2022-10-29T01:08:35;31;27;
43479;PMS5003;29067;35.492;-97.520;2022-10-29T01:11:06;29;28;
43479;PMS5003;29067;35.492;-97.520;2022-10-29T01:13:49;29;29;
43479;PMS5003;29067;35.492;-97.520;2022-10-29T01:16:28;27;25;
43479;PMS5003;29067;35.492;-97.520;2022-10-29T01:19:11;28;25;
43479;PMS5003;29067;35.492;-97.520;2022-10-29T01:21:46;31;26;
43479;PMS5003;29067;35.492;-97.520;2022-10-29T01:26:49;27;26;
43479;PMS5003;29067;35.492;-97.520;2022-10-29T01:29:45;24;24;
43479;PMS5003;29067;35.492;-97.520;2022-10-29T01:32:28;28;27;
43479;PMS5003;29067;35.492;-97.520;2022-10-29T01:35:06;28;27;
43479;PMS5003;29067;35.492;-97.520;2022-10-29T01:37:52;25;22;
43479;PMS5003;29067;35.492;-97.520;2022-10-29T01:40:32;26;25;
43479;PMS5003;29067;35.492;-97.520;2022-10-29T01:43:05;26;25;
43479;PMS5003;29067;35.492;-97.520;2022-10-29T01:45:38;22;21;
43479;PMS5003;29067;35.492;-97.520;2022-10-29T01:48:11;22;22;
43479;PMS5003;29067;35.492;-97.520;2022-10-29T01:50:42;23;22;
43479;PMS5003;29067;35.492;-97.520;2022-10-29T01:53:16;24;22;
43479;PMS5003;29067;35.492;-97.520;2022-10-29T01:55:46;24;23;
43479;PMS5003;29067;35.492;-97.520;2022-10-29T01:58:14;22;21;
43479;PMS5003;29067;35.492;-97.520;2022-10-29T02:00:45;23;21;
43479;PMS5003;29067;35.492;-97.520;2022-10-29T02:03:23;22;22;
43479;PMS5003;29067;35.492;-97.520;2022-10-29T02:06:05;19;19;
43479;PMS5003;29067;35.492;-97.520;2022-10-29T02:08:43;22;22;
43479;PMS5003;29067;35.492;-97.520;2022-10-29T02:11:20;28;25;
43479;PMS5003;29067;35.492;-97.520;2022-10-29T02:13:53;25;22;
43479;PMS5003;29067;35.492;-97.520;2022-10-29T02:16:26;26;25;
43479;PMS5003;29067;35.492;-97.520;2022-10-29T02:19:00;34;27;
43479;PMS5003;29067;35.492;-97.520;2022-10-29T02:21:30;52;45;
43479;PMS5003;29067;35.492;-97.520;2022-10-29T02:24:01;39;39;
43479;PMS5003;29067;35.492;-97.520;2022-10-29T02:26:29;34;32;
43479;PMS5003;29067;35.492;-97.520;2022-10-29T02:28:57;33;30;
43479;PMS5003;29067;35.492;-97.520;2022-10-29T02:31:26;38;37;
43479;PMS5003;29067;35.492;-97.520;2022-10-29T02:33:54;31;31;
43479;PMS5003;29067;35.492;-97.520;2022-10-29T02:36:27;34;34;
43479;PMS5003;29067;35.492;-97.520;2022-10-29T02:38:55;32;32;
43479;PMS5003;29067;35.492;-97.520;2022-10-29T02:41:23;29;28;
43479;PMS5003;29067;35.492;-97.520;2022-10-29T02:43:51;27;26;
43479;PMS5003;29067;35.492;-97.520;2022-10-29T02:46:19;52;43;
43479;PMS5003;29067;35.492;-97.520;2022-10-29T02:48:48;21;21;
43479;PMS5003;29067;35.492;-97.520;2022-10-29T02:51:22;22;21;
43479;PMS5003;29067;35.492;-97.520;2022-10-29T02:53:49;21;20;
43479;PMS5003;29067;35.492;-97.520;2022-10-29T02:56:17;19;19;
43479;PMS5003;29067;35.492;-97.520;2022-10-29T02:58:45;22;21;
43479;PMS5003;29067;35.492;-97.520;2022-10-29T03:01:14;23;21;
43479;PMS5003;29067;35.492;-97.520;2022-10-29T03:03:42;22;22;
43479;PMS5003;29067;35.492;-97.520;2022-10-29T03:06:11;22;21;
43479;PMS5003;29067;35.492;-97.520;2022-10-29T03:08:40;20;19;
43479;PMS5003;29067;35.492;-97.520;2022-10-29T03:11:08;25;21;
43479;PMS5003;29067;35.492;-97.520;2022-10-29T03:13:35;21;20;
43479;PMS5003;29067;35.492;-97.520;2022-10-29T03:16:04;21;20;
43479;PMS5003;29067;35.492;-97.520;2022-10-29T03:18:32;20;20;
43479;PMS5003;29067;35.492;-97.520;2022-10-29T03:21:00;23;21;
43479;PMS5003;29067;35.492;-97.520;2022-10-29T03:23:34;25;19;
43479;PMS5003;29067;35.492;-97.520;2022-10-29T03:26:03;22;21;
43479;PMS5003;29067;35.492;-97.520;2022-10-29T03:28:31;22;22;
43479;PMS5003;29067;35.492;-97.520;2022-10-29T03:30:58;23;21;
43479;PMS5003;29067;35.492;-97.520;2022-10-29T03:33:26;20;19;
43479;PMS5003;29067;35.492;-97.520;2022-10-29T03:35:55;21;19;
43479;PMS5003;29067;35.492;-97.520;2022-10-29T03:38:23;24;20;
43479;PMS5003;29067;35.492;-97.520;2022-10-29T03:40:51;22;20;
43479;PMS5003;29067;35.492;-97.520;2022-10-29T03:43:20;21;18;
43479;PMS5003;29067;35.492;-97.520;2022-10-29T03:45:49;17;17;
43479;PMS5003;29067;35.492;-97.520;2022-10-29T03:48:19;14;14;
43479;PMS5003;29067;35.492;-97.520;2022-10-29T03:50:53;16;16;
43479;PMS5003;29067;35.492;-97.520;2022-10-29T03:53:22;17;16;
43479;PMS5003;29067;35.492;-97.520;2022-10-29T03:55:56;16;15;
43479;PMS5003;29067;35.492;-97.520;2022-10-29T03:58:26;17;17;
43479;PMS5003;29067;35.492;-97.520;2022-10-29T04:00:55;19;18;
43479;PMS5003;29067;35.492;-97.520;2022-10-29T04:03:24;21;21;
43479;PMS5003;29067;35.492;-97.520;2022-10-29T04:05:54;23;23;
43479;PMS5003;29067;35.492;-97.520;2022-10-29T04:08:23;24;23;
43479;PMS5003;29067;35.492;-97.520;2022-10-29T04:10:51;26;25;
43479;PMS5003;29067;35.492;-97.520;2022-10-29T04:13:19;21;20;
43479;PMS5003;29067;35.492;-97.520;2022-10-29T04:15:47;19;18;
43479;PMS5003;29067;35.492;-97.520;2022-10-29T04:18:23;22;21;
43479;PMS5003;29067;35.492;-97.520;2022-10-29T04:20:52;34;34;
43479;PMS5003;29067;35.492;-97.520;2022-10-29T04:23:20;14;14;
43479;PMS5003;29067;35.492;-97.520;2022-10-29T04:25:55;23;20;
43479;PMS5003;29067;35.492;-97.520;2022-10-29T04:28:24;34;34;
43479;PMS5003;29067;35.492;-97.520;2022-10-29T04:30:52;13;13;
43479;PMS5003;29067;35.492;-97.520;2022-10-29T04:33:20;13;11;
43479;PMS5003;29067;35.492;-97.520;2022-10-29T04:35:52;11;11;
43479;PMS5003;29067;35.492;-97.520;2022-10-29T04:38:21;13;13;
43479;PMS5003;29067;35.492;-97.520;2022-10-29T04:40:49;13;13;
43479;PMS5003;29067;35.492;-97.520;2022-10-29T04:43:17;11;11;
43479;PMS5003;29067;35.492;-97.520;2022-10-29T04:45:50;10;10;
43479;PMS5003;29067;35.492;-97.520;2022-10-29T04:48:18;11;11;
43479;PMS5003;29067;35.492;-97.520;2022-10-29T04:50:47;12;12;
43479;PMS5003;29067;35.492;-97.520;2022-10-29T04:53:15;31;30;
43479;PMS5003;29067;35.492;-97.520;2022-10-29T04:55:44;26;25;
43479;PMS5003;29067;35.492;-97.520;2022-10-29T04:58:13;27;27;
43479;PMS5003;29067;35.492;-97.520;2022-10-29T05:00:43;10;10;
43479;PMS5003;29067;35.492;-97.520;2022-10-29T05:03:17;11;11;
43479;PMS5003;29067;35.492;-97.520;2022-10-29T05:05:56;10;9;
43479;PMS5003;29067;35.492;-97.520;2022-10-29T05:08:24;9;9;
43479;PMS5003;29067;35.492;-97.520;2022-10-29T05:10:59;9;9;
43479;PMS5003;29067;35.492;-97.520;2022-10-29T05:13:28;10;10;
43479;PMS5003;29067;35.492;-97.520;2022-10-29T05:15:57;11;11;
43479;PMS5003;29067;35.492;-97.520;2022-10-29T05:18:26;11;10;
43479;PMS5003;29067;35.492;-97.520;2022-10-29T05:20:54;10;9;
43479;PMS5003;29067;35.492;-97.520;2022-10-29T05:23:22;11;11;
43479;PMS5003;29067;35.492;-97.520;2022-10-29T05:25:50;11;11;
43479;PMS5003;29067;35.492;-97.520;2022-10-29T05:28:21;10;10;
43479;PMS5003;29067;35.492;-97.520;2022-10-29T05:30:50;10;9;
43479;PMS5003;29067;35.492;-97.520;2022-10-29T05:33:20;10;9;
43479;PMS5003;29067;35.492;-97.520;2022-10-29T05:35:55;9;9;
43479;PMS5003;29067;35.492;-97.520;2022-10-29T05:38:24;10;10;
43479;PMS5003;29067;35.492;-97.520;2022-10-29T05:40:52;14;13;
43479;PMS5003;29067;35.492;-97.520;2022-10-29T05:43:24;9;9;
43479;PMS5003;29067;35.492;-97.520;2022-10-29T05:46:02;9;9;
43479;PMS5003;29067;35.492;-97.520;2022-10-29T05:48:30;8;8;
43479;PMS5003;29067;35.492;-97.520;2022-10-29T05:50:58;8;8;
43479;PMS5003;29067;35.492;-97.520;2022-10-29T05:53:26;12;12;
43479;PMS5003;29067;35.492;-97.520;2022-10-29T05:55:54;11;10;
43479;PMS5003;29067;35.492;-97.520;2022-10-29T05:58:23;12;12;
43479;PMS5003;29067;35.492;-97.520;2022-10-29T06:00:51;10;9;
43479;PMS5003;29067;35.492;-97.520;2022-10-29T06:03:20;14;12;
43479;PMS5003;29067;35.492;-97.520;2022-10-29T06:05:49;13;13;
43479;PMS5003;29067;35.492;-97.520;2022-10-29T06:08:17;17;16;
43479;PMS5003;29067;35.492;-97.520;2022-10-29T06:10:45;10;10;
43479;PMS5003;29067;35.492;-97.520;2022-10-29T06:13:14;10;10;
43479;PMS5003;29067;35.492;-97.520;2022-10-29T06:15:43;10;10;
43479;PMS5003;29067;35.492;-97.520;2022-10-29T06:18:12;11;11;
43479;PMS5003;29067;35.492;-97.520;2022-10-29T06:20:40;11;10;
43479;PMS5003;29067;35.492;-97.520;2022-10-29T06:23:08;14;13;
43479;PMS5003;29067;35.492;-97.520;2022-10-29T06:25:36;14;13;
43479;PMS5003;29067;35.492;-97.520;2022-10-29T06:28:05;14;14;
43479;PMS5003;29067;35.492;-97.520;2022-10-29T06:30:35;14;13;
43479;PMS5003;29067;35.492;-97.520;2022-10-29T06:33:03;13;13;
43479;PMS5003;29067;35.492;-97.520;2022-10-29T06:35:31;10;9;
43479;PMS5003;29067;35.492;-97.520;2022-10-29T06:38:00;10;9;
43479;PMS5003;29067;35.492;-97.520;2022-10-29T06:40:27;8;8;
43479;PMS5003;29067;35.492;-97.520;2022-10-29T06:42:59;7;7;
43479;PMS5003;29067;35.492;-97.520;2022-10-29T06:45:28;8;8;
43479;PMS5003;29067;35.492;-97.520;2022-10-29T06:47:57;10;9;
43479;PMS5003;29067;35.492;-97.520;2022-10-29T06:50:25;10;9;
43479;PMS5003;29067;35.492;-97.520;2022-10-29T06:52:54;13;11;
43479;PMS5003;29067;35.492;-97.520;2022-10-29T06:55:28;11;11;
43479;PMS5003;29067;35.492;-97.520;2022-10-29T06:57:57;11;10;
43479;PMS5003;29067;35.492;-97.520;2022-10-29T07:00:26;9;9;
43479;PMS5003;29067;35.492;-97.520;2022-10-29T07:02:55;9;8;
43479;PMS5003;29067;35.492;-97.520;2022-10-29T07:05:28;13;13;
43479;PMS5003;29067;35.492;-97.520;2022-10-29T07:07:57;14;11;
43479;PMS5003;29067;35.492;-97.520;2022-10-29T07:10:27;10;10;
43479;PMS5003;29067;35.492;-97.520;2022-10-29T07:12:57;10;10;
43479;PMS5003;29067;35.492;-97.520;2022-10-29T07:15:25;7;7;
43479;PMS5003;29067;35.492;-97.520;2022-10-29T07:17:54;10;10;
43479;PMS5003;29067;35.492;-97.520;2022-10-29T07:20:23;10;10;
43479;PMS5003;29067;35.492;-97.520;2022-10-29T07:22:57;9;8;
43479;PMS5003;29067;35.492;-97.520;2022-10-29T07:25:24;10;9;
43479;PMS5003;29067;35.492;-97.520;2022-10-29T07:28:01;10;10;
43479;PMS5003;29067;35.492;-97.520;2022-10-29T07:30:30;11;10;
43479;PMS5003;29067;35.492;-97.520;2022-10-29T07:32:58;10;10;
43479;PMS5003;29067;35.492;-97.520;2022-10-29T07:35:26;9;9;
43479;PMS5003;29067;35.492;-97.520;2022-10-29T07:37:57;10;9;
43479;PMS5003;29067;35.492;-97.520;2022-10-29T07:40:25;11;10;
43479;PMS5003;29067;35.492;-97.520;2022-10-29T07:42:58;9;9;
43479;PMS5003;29067;35.492;-97.520;2022-10-29T07:45:26;9;9;
43479;PMS5003;29067;35.492;-97.520;2022-10-29T07:47:57;8;7;
43479;PMS5003;29067;35.492;-97.520;2022-10-29T07:50:26;9;9;
43479;PMS5003;29067;35.492;-97.520;2022-10-29T07:52:55;8;8;
43479;PMS5003;29067;35.492;-97.520;2022-10-29T07:55:26;9;9;
43479;PMS5003;29067;35.492;-97.520;2022-10-29T07:57:55;11;9;
43479;PMS5003;29067;35.492;-97.520;2022-10-29T08:00:31;14;14;
43479;PMS5003;29067;35.492;-97.520;2022-10-29T08:03:00;11;11;
43479;PMS5003;29067;35.492;-97.520;2022-10-29T08:05:28;14;12;
43479;PMS5003;29067;35.492;-97.520;2022-10-29T08:07:56;18;18;
43479;PMS5003;29067;35.492;-97.520;2022-10-29T08:10:24;15;14;
43479;PMS5003;29067;35.492;-97.520;2022-10-29T08:12:55;31;31;
43479;PMS5003;29067;35.492;-97.520;2022-10-29T08:15:24;34;34;
43479;PMS5003;29067;35.492;-97.520;2022-10-29T08:17:52;20;20;
43479;PMS5003;29067;35.492;-97.520;2022-10-29T08:20:21;26;26;
43479;PMS5003;29067;35.492;-97.520;2022-10-29T08:22:58;28;28;
43479;PMS5003;29067;35.492;-97.520;2022-10-29T08:25:26;19;19;
43479;PMS5003;29067;35.492;-97.520;2022-10-29T08:28:04;16;16;
43479;PMS5003;29067;35.492;-97.520;2022-10-29T08:30:32;11;11;
43479;PMS5003;29067;35.492;-97.520;2022-10-29T08:33:01;8;8;
43479;PMS5003;29067;35.492;-97.520;2022-10-29T08:35:29;13;13;
43479;PMS5003;29067;35.492;-97.520;2022-10-29T08:37:58;24;24;
43479;PMS5003;29067;35.492;-97.520;2022-10-29T08:40:27;26;25;
43479;PMS5003;29067;35.492;-97.520;2022-10-29T08:43:09;30;30;
43479;PMS5003;29067;35.492;-97.520;2022-10-29T08:46:01;12;9;
43479;PMS5003;29067;35.492;-97.520;2022-10-29T08:48:35;14;12;
43479;PMS5003;29067;35.492;-97.520;2022-10-29T08:51:13;16;16;
43479;PMS5003;29067;35.492;-97.520;2022-10-29T08:53:47;14;14;
43479;PMS5003;29067;35.492;-97.520;2022-10-29T08:56:18;19;19;
43479;PMS5003;29067;35.492;-97.520;2022-10-29T08:58:52;14;12;
43479;PMS5003;29067;35.492;-97.520;2022-10-29T09:01:24;11;10;
43479;PMS5003;29067;35.492;-97.520;2022-10-29T09:03:53;8;8;
43479;PMS5003;29067;35.492;-97.520;2022-10-29T09:06:30;9;9;
43479;PMS5003;29067;35.492;-97.520;2022-10-29T09:09:15;10;9;
43479;PMS5003;29067;35.492;-97.520;2022-10-29T09:12:00;10;10;
43479;PMS5003;29067;35.492;-97.520;2022-10-29T09:14:46;13;11;
43479;PMS5003;29067;35.492;-97.520;2022-10-29T09:17:30;10;10;
43479;PMS5003;29067;35.492;-97.520;2022-10-29T09:20:12;11;10;
43479;PMS5003;29067;35.492;-97.520;2022-10-29T09:22:52;9;8;
43479;PMS5003;29067;35.492;-97.520;2022-10-29T09:25:28;9;9;
43479;PMS5003;29067;35.492;-97.520;2022-10-29T09:28:05;9;9;
43479;PMS5003;29067;35.492;-97.520;2022-10-29T09:30:46;10;10;
43479;PMS5003;29067;35.492;-97.520;2022-10-29T09:33:24;11;10;
43479;PMS5003;29067;35.492;-97.520;2022-10-29T09:35:54;10;10;
43479;PMS5003;29067;35.492;-97.520;2022-10-29T09:38:29;9;9;
43479;PMS5003;29067;35.492;-97.520;2022-10-29T09:41:00;10;10;
43479;PMS5003;29067;35.492;-97.520;2022-10-29T09:43:33;9;9;
43479;PMS5003;29067;35.492;-97.520;2022-10-29T09:46:12;8;8;
43479;PMS5003;29067;35.492;-97.520;2022-10-29T09:48:50;8;8;
43479;PMS5003;29067;35.492;-97.520;2022-10-29T09:51:28;9;9;
43479;PMS5003;29067;35.492;-97.520;2022-10-29T09:54:03;9;9;
43479;PMS5003;29067;35.492;-97.520;2022-10-29T09:56:32;9;9;
43479;PMS5003;29067;35.492;-97.520;2022-10-29T09:59:03;10;9;
43479;PMS5003;29067;35.492;-97.520;2022-10-29T10:01:38;9;9;
43479;PMS5003;29067;35.492;-97.520;2022-10-29T10:04:11;9;8;
43479;PMS5003;29067;35.492;-97.520;2022-10-29T10:07:00;10;9;
43479;PMS5003;29067;35.492;-97.520;2022-10-29T10:09:51;8;8;
43479;PMS5003;29067;35.492;-97.520;2022-10-29T10:12:24;11;10;
43479;PMS5003;29067;35.492;-97.520;2022-10-29T10:15:16;9;9;
43479;PMS5003;29067;35.492;-97.520;2022-10-29T10:17:54;9;9;
43479;PMS5003;29067;35.492;-97.520;2022-10-29T10:20:32;8;8;
43479;PMS5003;29067;35.492;-97.520;2022-10-29T10:23:14;9;9;
43479;PMS5003;29067;35.492;-97.520;2022-10-29T10:25:46;8;8;
43479;PMS5003;29067;35.492;-97.520;2022-10-29T10:28:16;7;7;
43479;PMS5003;29067;35.492;-97.520;2022-10-29T10:30:45;10;9;
43479;PMS5003;29067;35.492;-97.520;2022-10-29T10:33:33;10;10;
43479;PMS5003;29067;35.492;-97.520;2022-10-29T10:36:03;15;15;
43479;PMS5003;29067;35.492;-97.520;2022-10-29T10:38:37;14;12;
43479;PMS5003;29067;35.492;-97.520;2022-10-29T10:41:08;15;15;
43479;PMS5003;29067;35.492;-97.520;2022-10-29T10:43:40;15;15;
43479;PMS5003;29067;35.492;-97.520;2022-10-29T10:46:13;11;10;
43479;PMS5003;29067;35.492;-97.520;2022-10-29T10:48:55;12;11;
43479;PMS5003;29067;35.492;-97.520;2022-10-29T10:51:26;13;13;
43479;PMS5003;29067;35.492;-97.520;2022-10-29T10:53:56;11;10;
43479;PMS5003;29067;35.492;-97.520;2022-10-29T10:56:27;15;10;
43479;PMS5003;29067;35.492;-97.520;2022-10-29T10:58:58;9;9;
43479;PMS5003;29067;35.492;-97.520;2022-10-29T11:03:01;10;10;
43479;PMS5003;29067;35.492;-97.520;2022-10-29T11:05:38;9;9;
43479;PMS5003;29067;35.492;-97.520;2022-10-29T11:08:11;9;9;
43479;PMS5003;29067;35.492;-97.520;2022-10-29T11:10:45;8;8;
43479;PMS5003;29067;35.492;-97.520;2022-10-29T11:13:19;10;10;
43479;PMS5003;29067;35.492;-97.520;2022-10-29T11:15:51;8;8;
43479;PMS5003;29067;35.492;-97.520;2022-10-29T11:18:24;9;9;
43479;PMS5003;29067;35.492;-97.520;2022-10-29T11:21:01;10;10;
43479;PMS5003;29067;35.492;-97.520;2022-10-29T11:23:41;9;9;
43479;PMS5003;29067;35.492;-97.520;2022-10-29T11:26:15;8;8;
43479;PMS5003;29067;35.492;-97.520;2022-10-29T11:28:49;8;8;
43479;PMS5003;29067;35.492;-97.520;2022-10-29T11:31:23;9;8;
43479;PMS5003;29067;35.492;-97.520;2022-10-29T11:34:00;8;8;
43479;PMS5003;29067;35.492;-97.520;2022-10-29T11:36:38;9;8;
43479;PMS5003;29067;35.492;-97.520;2022-10-29T11:39:10;11;10;
43479;PMS5003;29067;35.492;-97.520;2022-10-29T11:41:45;8;8;
43479;PMS5003;29067;35.492;-97.520;2022-10-29T11:44:19;10;9;
43479;PMS5003;29067;35.492;-97.520;2022-10-29T11:46:51;11;10;
43479;PMS5003;29067;35.492;-97.520;2022-10-29T11:49:34;10;9;
43479;PMS5003;29067;35.492;-97.520;2022-10-29T11:52:16;10;10;
43479;PMS5003;29067;35.492;-97.520;2022-10-29T11:54:57;14;13;
43479;PMS5003;29067;35.492;-97.520;2022-10-29T11:57:35;9;9;
43479;PMS5003;29067;35.492;-97.520;2022-10-29T12:00:11;14;13;
43479;PMS5003;29067;35.492;-97.520;2022-10-29T12:02:47;7;7;
43479;PMS5003;29067;35.492;-97.520;2022-10-29T12:05:32;10;9;
43479;PMS5003;29067;35.492;-97.520;2022-10-29T12:08:10;9;9;
43479;PMS5003;29067;35.492;-97.520;2022-10-29T12:10:49;8;8;
43479;PMS5003;29067;35.492;-97.520;2022-10-29T12:13:30;9;9;
43479;PMS5003;29067;35.492;-97.520;2022-10-29T12:16:11;9;9;
43479;PMS5003;29067;35.492;-97.520;2022-10-29T12:18:46;10;10;
43479;PMS5003;29067;35.492;-97.520;2022-10-29T12:21:27;8;8;
43479;PMS5003;29067;35.492;-97.520;2022-10-29T12:24:08;8;8;
43479;PMS5003;29067;35.492;-97.520;2022-10-29T12:26:53;10;10;
43479;PMS5003;29067;35.492;-97.520;2022-10-29T12:29:30;10;9;
43479;PMS5003;29067;35.492;-97.520;2022-10-29T12:32:06;8;8;
43479;PMS5003;29067;35.492;-97.520;2022-10-29T12:34:39;9;8;
43479;PMS5003;29067;35.492;-97.520;2022-10-29T12:37:13;8;8;
43479;PMS5003;29067;35.492;-97.520;2022-10-29T12:39:49;9;9;
43479;PMS5003;29067;35.492;-97.520;2022-10-29T12:42:23;9;9;
43479;PMS5003;29067;35.492;-97.520;2022-10-29T12:44:57;9;9;
43479;PMS5003;29067;35.492;-97.520;2022-10-29T12:47:34;9;8;
43479;PMS5003;29067;35.492;-97.520;2022-10-29T12:50:10;8;8;
43479;PMS5003;29067;35.492;-97.520;2022-10-29T12:52:51;10;9;
43479;PMS5003;29067;35.492;-97.520;2022-10-29T12:55:30;9;8;
43479;PMS5003;29067;35.492;-97.520;2022-10-29T12:58:00;8;8;
43479;PMS5003;29067;35.492;-97.520;2022-10-29T13:04:01;14;9;
43479;PMS5003;29067;35.492;-97.520;2022-10-29T13:06:46;9;9;
43479;PMS5003;29067;35.492;-97.520;2022-10-29T13:09:22;11;11;
43479;PMS5003;29067;35.492;-97.520;2022-10-29T13:11:52;8;8;
43479;PMS5003;29067;35.492;-97.520;2022-10-29T13:14:22;10;10;
43479;PMS5003;29067;35.492;-97.520;2022-10-29T13:16:53;9;9;
43479;PMS5003;29067;35.492;-97.520;2022-10-29T13:19:27;9;9;
43479;PMS5003;29067;35.492;-97.520;2022-10-29T13:22:29;8;7;
43479;PMS5003;29067;35.492;-97.520;2022-10-29T13:26:04;9;9;
43479;PMS5003;29067;35.492;-97.520;2022-10-29T13:28:50;8;8;
43479;PMS5003;29067;35.492;-97.520;2022-10-29T13:31:50;10;10;
43479;PMS5003;29067;35.492;-97.520;2022-10-29T13:34:51;10;9;
43479;PMS5003;29067;35.492;-97.520;2022-10-29T13:37:48;9;9;
43479;PMS5003;29067;35.492;-97.520;2022-10-29T13:41:18;9;9;
43479;PMS5003;29067;35.492;-97.520;2022-10-29T13:43:52;8;8;
43479;PMS5003;29067;35.492;-97.520;2022-10-29T13:46:40;6;6;
43479;PMS5003;29067;35.492;-97.520;2022-10-29T13:49:15;10;10;
43479;PMS5003;29067;35.492;-97.520;2022-10-29T13:51:49;8;7;
43479;PMS5003;29067;35.492;-97.520;2022-10-29T13:54:24;8;8;
43479;PMS5003;29067;35.492;-97.520;2022-10-29T13:56:58;8;8;
43479;PMS5003;29067;35.492;-97.520;2022-10-29T13:59:33;10;10;
43479;PMS5003;29067;35.492;-97.520;2022-10-29T14:02:13;8;8;
43479;PMS5003;29067;35.492;-97.520;2022-10-29T14:04:51;8;8;
43479;PMS5003;29067;35.492;-97.520;2022-10-29T14:07:23;7;7;
43479;PMS5003;29067;35.492;-97.520;2022-10-29T14:10:00;10;10;
43479;PMS5003;29067;35.492;-97.520;2022-10-29T14:12:34;16;16;
43479;PMS5003;29067;35.492;-97.520;2022-10-29T14:15:10;20;17;
43479;PMS5003;29067;35.492;-97.520;2022-10-29T14:17:39;31;30;
43479;PMS5003;29067;35.492;-97.520;2022-10-29T14:20:18;32;32;
43479;PMS5003;29067;35.492;-97.520;2022-10-29T14:22:47;22;21;
43479;PMS5003;29067;35.492;-97.520;2022-10-29T14:25:32;22;21;
43479;PMS5003;29067;35.492;-97.520;2022-10-29T14:28:23;14;14;
43479;PMS5003;29067;35.492;-97.520;2022-10-29T14:30:59;15;15;
43479;PMS5003;29067;35.492;-97.520;2022-10-29T14:33:31;23;23;
43479;PMS5003;29067;35.492;-97.520;2022-10-29T14:36:04;33;32;
43479;PMS5003;29067;35.492;-97.520;2022-10-29T14:38:39;16;16;
43479;PMS5003;29067;35.492;-97.520;2022-10-29T14:41:10;24;24;
43479;PMS5003;29067;35.492;-97.520;2022-10-29T14:43:45;32;32;
43479;PMS5003;29067;35.492;-97.520;2022-10-29T14:46:23;36;36;
43479;PMS5003;29067;35.492;-97.520;2022-10-29T14:48:54;39;39;
43479;PMS5003;29067;35.492;-97.520;2022-10-29T14:51:26;40;38;
43479;PMS5003;29067;35.492;-97.520;2022-10-29T14:54:02;42;41;
43479;PMS5003;29067;35.492;-97.520;2022-10-29T14:56:33;40;40;
43479;PMS5003;29067;35.492;-97.520;2022-10-29T14:59:06;23;21;
43479;PMS5003;29067;35.492;-97.520;2022-10-29T15:01:44;34;33;
43479;PMS5003;29067;35.492;-97.520;2022-10-29T15:04:17;34;34;
43479;PMS5003;29067;35.492;-97.520;2022-10-29T15:06:46;32;32;
43479;PMS5003;29067;35.492;-97.520;2022-10-29T15:09:15;28;27;
43479;PMS5003;29067;35.492;-97.520;2022-10-29T15:11:46;29;28;
43479;PMS5003;29067;35.492;-97.520;2022-10-29T15:14:25;19;19;
43479;PMS5003;29067;35.492;-97.520;2022-10-29T15:17:00;12;12;
43479;PMS5003;29067;35.492;-97.520;2022-10-29T15:19:36;12;12;
43479;PMS5003;29067;35.492;-97.520;2022-10-29T15:22:15;10;10;
43479;PMS5003;29067;35.492;-97.520;2022-10-29T15:24:47;11;11;
43479;PMS5003;29067;35.492;-97.520;2022-10-29T15:27:17;9;9;
43479;PMS5003;29067;35.492;-97.520;2022-10-29T15:29:45;7;7;
43479;PMS5003;29067;35.492;-97.520;2022-10-29T15:32:16;9;9;
43479;PMS5003;29067;35.492;-97.520;2022-10-29T15:34:48;10;9;
43479;PMS5003;29067;35.492;-97.520;2022-10-29T15:37:22;11;9;
43479;PMS5003;29067;35.492;-97.520;2022-10-29T15:40:05;9;9;
43479;PMS5003;29067;35.492;-97.520;2022-10-29T15:42:42;10;10;
43479;PMS5003;29067;35.492;-97.520;2022-10-29T15:45:16;9;9;
43479;PMS5003;29067;35.492;-97.520;2022-10-29T15:47:46;10;10;
43479;PMS5003;29067;35.492;-97.520;2022-10-29T15:50:20;9;9;
43479;PMS5003;29067;35.492;-97.520;2022-10-29T15:52:56;10;10;
43479;PMS5003;29067;35.492;-97.520;2022-10-29T15:55:26;8;8;
43479;PMS5003;29067;35.492;-97.520;2022-10-29T15:57:59;11;10;
43479;PMS5003;29067;35.492;-97.520;2022-10-29T16:00:30;9;8;
43479;PMS5003;29067;35.492;-97.520;2022-10-29T16:03:00;11;10;
43479;PMS5003;29067;35.492;-97.520;2022-10-29T16:05:37;8;8;
43479;PMS5003;29067;35.492;-97.520;2022-10-29T16:08:06;8;8;
43479;PMS5003;29067;35.492;-97.520;2022-10-29T16:10:43;10;9;
43479;PMS5003;29067;35.492;-97.520;2022-10-29T16:13:11;8;8;
43479;PMS5003;29067;35.492;-97.520;2022-10-29T16:15:50;11;10;
43479;PMS5003;29067;35.492;-97.520;2022-10-29T16:18:18;14;13;
43479;PMS5003;29067;35.492;-97.520;2022-10-29T16:20:45;13;13;
43479;PMS5003;29067;35.492;-97.520;2022-10-29T16:23:14;12;12;
43479;PMS5003;29067;35.492;-97.520;2022-10-29T16:25:42;10;9;
43479;PMS5003;29067;35.492;-97.520;2022-10-29T16:28:10;10;10;
43479;PMS5003;29067;35.492;-97.520;2022-10-29T16:30:37;14;13;
43479;PMS5003;29067;35.492;-97.520;2022-10-29T16:33:07;11;11;
43479;PMS5003;29067;35.492;-97.520;2022-10-29T16:35:37;12;12;
43479;PMS5003;29067;35.492;-97.520;2022-10-29T16:38:10;9;9;
43479;PMS5003;29067;35.492;-97.520;2022-10-29T16:40:38;10;10;